Time;durP1;ratioP1;P1;durP2;ratioP2;P2;SDS_P1;SDS_P2;PMS_P1;PMS_P2;Temp;Humidity;BMP_temperature;BMP_pressure;BME280_temperature;BME280_humidity;BME280_pressure;Samples;Min_cycle;Max_cycle;Signal;HPM_P1;HPM_P2
2023/02/14 00:01:45;;;;;;;2.38;2.17;;;7.30;99.90;;;;;;5065437;28;20221;-72
2023/02/14 00:04:14;;;;;;;2.60;2.40;;;7.30;99.90;;;;;;5048827;28;20705;-72
2023/02/14 00:06:44;;;;;;;2.75;2.55;;;7.30;99.90;;;;;;5048973;28;20255;-72
2023/02/14 00:09:15;;;;;;;3.50;2.35;;;7.30;99.90;;;;;;5036882;28;20698;-72
2023/02/14 00:11:44;;;;;;;3.17;2.40;;;7.40;99.90;;;;;;5048920;28;20294;-72
2023/02/14 00:16:59;;;;;;;3.05;2.50;;;7.40;99.90;;;;;;5043525;28;20196;-72
2023/02/14 00:19:27;;;;;;;2.70;2.50;;;7.30;99.90;;;;;;5053580;28;20276;-72
2023/02/14 00:21:57;;;;;;;2.45;2.25;;;7.30;99.90;;;;;;5047034;28;20222;-72
2023/02/14 00:24:27;;;;;;;2.80;2.60;;;7.30;99.90;;;;;;5046360;28;20239;-72
2023/02/14 00:26:55;;;;;;;5.63;2.42;;;7.30;99.90;;;;;;5048118;28;20229;-72
2023/02/14 00:29:26;;;;;;;3.53;2.28;;;7.30;99.90;;;;;;5049078;28;20221;-72
2023/02/14 00:31:54;;;;;;;2.38;2.17;;;7.40;99.90;;;;;;5063635;28;20232;-72
2023/02/14 00:34:24;;;;;;;2.83;2.63;;;7.30;99.90;;;;;;5047327;28;20733;-72
2023/02/14 00:36:54;;;;;;;3.58;2.80;;;7.40;99.90;;;;;;5057960;28;20199;-72
2023/02/14 00:39:23;;;;;;;3.22;2.80;;;7.40;99.90;;;;;;5049057;28;20207;-72
2023/02/14 00:41:52;;;;;;;3.70;3.10;;;7.30;99.90;;;;;;5044818;28;20288;-72
2023/02/14 00:44:20;;;;;;;3.03;2.63;;;7.30;99.90;;;;;;5048426;28;20256;-72
2023/02/14 00:46:48;;;;;;;3.53;2.55;;;7.30;99.90;;;;;;5066832;28;20699;-72
2023/02/14 00:49:17;;;;;;;2.65;2.00;;;7.30;99.90;;;;;;5048119;28;20217;-72
2023/02/14 00:51:45;;;;;;;3.05;2.85;;;7.30;99.90;;;;;;5049407;28;20228;-72
2023/02/14 00:54:13;;;;;;;3.30;2.95;;;7.30;99.90;;;;;;5048325;28;20620;-72
2023/02/14 00:56:43;;;;;;;2.72;2.38;;;7.30;99.90;;;;;;5048522;28;20289;-72
2023/02/14 00:59:11;;;;;;;3.97;3.35;;;7.30;99.90;;;;;;5048249;28;20211;-72
2023/02/14 01:01:42;;;;;;;2.80;2.60;;;7.30;99.90;;;;;;5047162;28;20199;-72
2023/02/14 01:04:10;;;;;;;3.60;2.40;;;7.30;99.90;;;;;;5046060;28;20330;-72
2023/02/14 01:06:38;;;;;;;3.28;2.50;;;7.30;99.90;;;;;;5047890;28;20209;-72
2023/02/14 01:09:07;;;;;;;2.35;2.10;;;7.30;99.90;;;;;;5048427;28;20538;-72
2023/02/14 01:11:35;;;;;;;3.33;3.03;;;7.30;99.90;;;;;;5048542;28;20203;-72
2023/02/14 01:14:06;;;;;;;2.90;2.40;;;7.30;99.90;;;;;;5063192;28;20223;-72
2023/02/14 01:16:35;;;;;;;3.03;2.72;;;7.30;99.90;;;;;;5066132;28;20253;-72
2023/02/14 01:19:03;;;;;;;2.90;2.70;;;7.30;99.90;;;;;;5036792;28;20314;-72
2023/02/14 01:21:33;;;;;;;2.83;2.50;;;7.30;99.90;;;;;;5045669;28;20634;-72
2023/02/14 01:24:05;;;;;;;3.80;2.63;;;7.30;99.90;;;;;;5008837;28;1133638;-72
2023/02/14 01:26:34;;;;;;;2.55;2.35;;;7.30;99.90;;;;;;5048787;28;20315;-72
2023/02/14 01:29:03;;;;;;;3.90;2.60;;;7.30;99.90;;;;;;5045956;28;20605;-72
2023/02/14 01:31:35;;;;;;;2.20;2.00;;;7.30;99.90;;;;;;5067085;28;20549;-72
2023/02/14 01:34:04;;;;;;;2.20;2.00;;;7.30;99.90;;;;;;5048055;28;20204;-72
2023/02/14 01:36:35;;;;;;;3.35;2.60;;;7.30;99.90;;;;;;5048223;28;20273;-72
2023/02/14 01:39:07;;;;;;;3.15;2.60;;;7.30;99.90;;;;;;5048690;28;20188;-72
2023/02/14 01:41:37;;;;;;;2.17;1.98;;;7.30;99.90;;;;;;5045521;28;20204;-72
2023/02/14 01:44:08;;;;;;;2.40;2.20;;;7.30;99.90;;;;;;5049451;28;20308;-72
2023/02/14 01:46:38;;;;;;;3.22;2.25;;;7.30;99.90;;;;;;5031497;28;20209;-72
2023/02/14 01:49:09;;;;;;;2.75;2.55;;;7.30;99.90;;;;;;5064511;28;20237;-72
2023/02/14 01:51:41;;;;;;;3.22;2.92;;;7.30;99.90;;;;;;5047577;28;20785;-72
2023/02/14 01:54:10;;;;;;;2.35;2.15;;;7.30;99.90;;;;;;5037629;28;20194;-72
2023/02/14 01:56:42;;;;;;;4.10;3.03;;;7.30;99.90;;;;;;5048513;28;20227;-72
2023/02/14 01:59:18;;;;;;;2.95;2.50;;;7.30;99.90;;;;;;5048139;28;20372;-72
2023/02/14 02:01:50;;;;;;;3.33;2.67;;;7.30;99.90;;;;;;5064847;28;20344;-72
2023/02/14 02:04:26;;;;;;;3.30;2.50;;;7.30;99.90;;;;;;5045028;28;20698;-72
2023/02/14 02:07:02;;;;;;;2.85;2.40;;;7.30;99.90;;;;;;5047291;28;20685;-72
2023/02/14 02:09:33;;;;;;;3.75;2.90;;;7.30;99.90;;;;;;5043602;28;20210;-72
2023/02/14 02:12:03;;;;;;;3.70;2.60;;;7.20;99.90;;;;;;5047891;28;20547;-72
2023/02/14 02:14:32;;;;;;;2.70;2.30;;;7.20;99.90;;;;;;5044338;28;20210;-72
2023/02/14 02:17:16;;;;;;;3.20;2.90;;;7.30;99.90;;;;;;5045491;28;20825;-72
2023/02/14 02:20:23;;;;;;;3.78;2.60;;;7.20;99.90;;;;;;5045540;28;20618;-72
2023/02/14 02:23:28;;;;;;;3.38;2.20;;;7.20;99.90;;;;;;5047694;28;20194;-72
2023/02/14 02:26:20;;;;;;;2.80;2.38;;;7.30;99.90;;;;;;5060216;28;20224;-72
2023/02/14 02:29:27;;;;;;;2.83;2.25;;;7.20;99.90;;;;;;5045090;28;20228;-72
2023/02/14 02:32:22;;;;;;;3.17;2.88;;;7.20;99.90;;;;;;5046359;28;20194;-72
2023/02/14 02:35:15;;;;;;;3.67;2.80;;;7.20;99.90;;;;;;5039594;28;20604;-72
2023/02/14 02:37:58;;;;;;;4.30;2.55;;;7.20;99.90;;;;;;5039679;28;20198;-72
2023/02/14 02:40:43;;;;;;;2.90;2.63;;;7.20;99.90;;;;;;5038103;28;20222;-72
2023/02/14 02:43:24;;;;;;;2.45;2.25;;;7.20;99.90;;;;;;5043369;28;20251;-72
2023/02/14 02:48:49;;;;;;;2.80;2.60;;;7.20;99.90;;;;;;5040336;28;20200;-73
2023/02/14 02:54:23;;;;;;;2.90;2.60;;;7.20;99.90;;;;;;5039603;28;20228;-72
2023/02/14 02:56:56;;;;;;;2.33;2.08;;;7.20;99.90;;;;;;5031151;28;20284;-72
2023/02/14 02:59:26;;;;;;;3.95;2.70;;;7.20;99.90;;;;;;5044062;28;20202;-72
2023/02/14 03:02:01;;;;;;;2.50;2.03;;;7.20;99.90;;;;;;5048700;28;20281;-72
2023/02/14 03:04:51;;;;;;;3.22;2.85;;;7.20;99.90;;;;;;5058839;28;20213;-72
2023/02/14 03:07:35;;;;;;;2.63;2.42;;;7.20;99.90;;;;;;5066291;28;20202;-72
2023/02/14 03:10:12;;;;;;;2.53;2.33;;;7.20;99.90;;;;;;5036852;28;20231;-72
2023/02/14 03:13:19;;;;;;;2.90;2.38;;;7.20;99.90;;;;;;5045325;28;20208;-72
2023/02/14 03:15:58;;;;;;;2.50;2.17;;;7.20;99.90;;;;;;5047781;28;20702;-72
2023/02/14 03:18:44;;;;;;;3.05;2.50;;;7.20;99.90;;;;;;5049492;28;20603;-72
2023/02/14 03:21:24;;;;;;;2.67;2.47;;;7.20;99.90;;;;;;5067091;28;20337;-72
2023/02/14 03:24:03;;;;;;;2.95;2.50;;;7.10;99.90;;;;;;5040856;28;20233;-72
2023/02/14 03:26:37;;;;;;;2.88;2.40;;;7.20;99.90;;;;;;5052404;28;20257;-73
2023/02/14 03:29:14;;;;;;;3.25;2.70;;;7.10;99.90;;;;;;5042080;28;20218;-72
2023/02/14 03:31:54;;;;;;;2.63;2.42;;;7.20;99.90;;;;;;5048156;28;20657;-72
2023/02/14 03:34:31;;;;;;;2.38;2.08;;;7.10;99.90;;;;;;5053063;28;20604;-72
2023/02/14 03:37:05;;;;;;;2.58;2.30;;;7.10;99.90;;;;;;5042204;28;20224;-73
2023/02/14 03:39:43;;;;;;;2.60;2.40;;;7.10;99.90;;;;;;5051903;28;20226;-72
2023/02/14 03:42:18;;;;;;;3.38;2.75;;;7.10;99.90;;;;;;5045966;28;20201;-72
2023/02/14 03:44:49;;;;;;;3.03;2.65;;;7.20;99.90;;;;;;5053397;28;20225;-72
2023/02/14 03:47:21;;;;;;;3.90;2.75;;;7.10;99.90;;;;;;5062315;28;20694;-72
2023/02/14 03:49:53;;;;;;;2.42;2.05;;;7.10;99.90;;;;;;5045992;28;20218;-72
2023/02/14 03:52:23;;;;;;;3.00;2.65;;;7.10;99.90;;;;;;5053353;28;20264;-72
2023/02/14 03:54:56;;;;;;;2.38;2.17;;;7.10;99.90;;;;;;5063339;28;20245;-72
2023/02/14 03:57:28;;;;;;;2.72;2.53;;;7.10;99.90;;;;;;5052698;28;20247;-72
2023/02/14 03:59:57;;;;;;;2.60;2.35;;;7.10;99.90;;;;;;5063869;28;20778;-72
2023/02/14 04:02:29;;;;;;;2.40;2.20;;;7.10;99.90;;;;;;5068008;28;20222;-72
2023/02/14 04:05:00;;;;;;;2.75;2.28;;;7.10;99.90;;;;;;5048041;28;20259;-72
2023/02/14 04:07:28;;;;;;;2.53;2.33;;;7.10;99.90;;;;;;5051962;28;20666;-72
2023/02/14 04:09:58;;;;;;;3.83;3.15;;;7.10;99.90;;;;;;5050957;28;20249;-72
2023/02/14 04:12:26;;;;;;;3.05;2.75;;;7.10;99.90;;;;;;5050320;28;20204;-72
2023/02/14 04:15:06;;;;;;;3.60;2.90;;;7.10;99.90;;;;;;5050595;28;20224;-72
2023/02/14 04:20:20;;;;;;;3.75;3.08;;;7.10;99.90;;;;;;5049202;28;20643;-72
2023/02/14 04:22:50;;;;;;;3.03;2.35;;;7.10;99.90;;;;;;5051317;28;20228;-72
2023/02/14 04:25:21;;;;;;;2.65;2.45;;;7.10;99.90;;;;;;5049975;28;20222;-72
2023/02/14 04:27:49;;;;;;;3.25;2.72;;;7.00;99.90;;;;;;5048612;28;20229;-72
2023/02/14 04:30:19;;;;;;;2.63;2.38;;;7.00;99.90;;;;;;5050212;28;20227;-72
2023/02/14 04:32:48;;;;;;;2.42;2.22;;;7.00;99.90;;;;;;5049859;28;20561;-72
2023/02/14 04:35:16;;;;;;;3.60;2.67;;;7.00;99.90;;;;;;5060849;28;20585;-72
2023/02/14 04:37:45;;;;;;;4.80;2.45;;;7.00;99.90;;;;;;5048658;28;20666;-72
2023/02/14 04:40:16;;;;;;;2.42;2.10;;;7.00;99.90;;;;;;5050252;28;20701;-72
2023/02/14 04:42:46;;;;;;;3.05;2.70;;;7.00;99.90;;;;;;5048549;28;20201;-72
2023/02/14 04:45:15;;;;;;;2.92;2.72;;;7.00;99.90;;;;;;5049394;28;20660;-72
2023/02/14 04:47:43;;;;;;;3.10;2.80;;;7.00;99.90;;;;;;5050552;28;20248;-72
2023/02/14 04:50:12;;;;;;;3.05;2.60;;;7.00;99.90;;;;;;5048718;28;20228;-72
2023/02/14 04:52:40;;;;;;;3.63;3.20;;;6.90;99.90;;;;;;5050454;28;20202;-72
2023/02/14 04:55:10;;;;;;;3.20;2.60;;;7.00;99.90;;;;;;5049723;28;20225;-72
2023/02/14 04:57:38;;;;;;;3.70;2.85;;;6.90;99.90;;;;;;5047406;28;20199;-72
2023/02/14 05:00:09;;;;;;;2.65;2.40;;;6.90;99.90;;;;;;5049730;28;20767;-72
2023/02/14 05:02:38;;;;;;;2.35;1.90;;;7.00;99.90;;;;;;5049931;28;20242;-72
2023/02/14 05:05:07;;;;;;;2.35;2.15;;;6.90;99.90;;;;;;5053241;28;20312;-72
2023/02/14 05:07:35;;;;;;;2.90;2.50;;;7.00;99.90;;;;;;5049526;28;20233;-72
2023/02/14 05:10:05;;;;;;;2.70;2.28;;;6.90;99.90;;;;;;5049275;28;20221;-72
2023/02/14 05:12:33;;;;;;;2.85;2.40;;;7.00;99.90;;;;;;5046468;28;20205;-72
2023/02/14 05:15:02;;;;;;;3.25;2.05;;;7.00;99.90;;;;;;5044993;28;20228;-72
2023/02/14 05:17:31;;;;;;;2.25;1.90;;;7.00;99.90;;;;;;5066348;28;20177;-72
2023/02/14 05:20:00;;;;;;;2.33;2.08;;;7.00;99.90;;;;;;5062433;28;20581;-72
2023/02/14 05:22:28;;;;;;;2.30;2.10;;;7.00;99.90;;;;;;5048017;28;20199;-72
2023/02/14 05:24:56;;;;;;;2.42;2.13;;;7.00;99.90;;;;;;5048851;28;20245;-72
2023/02/14 05:27:25;;;;;;;2.42;2.22;;;7.00;99.90;;;;;;5063836;28;20299;-72
2023/02/14 05:29:53;;;;;;;3.00;2.75;;;6.90;99.90;;;;;;5043497;28;20250;-72
2023/02/14 05:32:21;;;;;;;2.40;2.20;;;6.90;99.90;;;;;;5049668;28;20202;-72
2023/02/14 05:34:51;;;;;;;3.75;2.00;;;7.00;99.90;;;;;;5042566;28;20769;-72
2023/02/14 05:37:19;;;;;;;2.95;2.65;;;6.90;99.90;;;;;;5047231;28;20204;-72
2023/02/14 05:39:48;;;;;;;3.13;2.33;;;6.90;99.90;;;;;;5065678;28;20264;-72
2023/02/14 05:42:16;;;;;;;2.50;2.30;;;7.00;99.90;;;;;;5068375;28;20203;-72
2023/02/14 05:44:45;;;;;;;4.00;2.40;;;6.90;99.90;;;;;;5048952;28;20249;-72
2023/02/14 05:47:13;;;;;;;2.30;2.05;;;7.00;99.90;;;;;;5049977;28;20566;-72
2023/02/14 05:49:42;;;;;;;3.28;2.40;;;7.00;99.90;;;;;;5048235;28;20183;-72
2023/02/14 05:52:11;;;;;;;3.13;2.30;;;6.90;99.90;;;;;;5067521;28;20665;-72
2023/02/14 05:54:40;;;;;;;2.60;2.40;;;6.90;99.90;;;;;;5048824;28;20224;-72
2023/02/14 05:57:08;;;;;;;2.65;2.00;;;6.90;99.90;;;;;;5055472;28;20301;-72
2023/02/14 05:59:36;;;;;;;2.85;2.05;;;6.90;99.90;;;;;;5066453;28;20365;-72
2023/02/14 06:02:05;;;;;;;2.28;2.05;;;6.90;99.90;;;;;;5048747;28;20235;-72
2023/02/14 06:04:33;;;;;;;2.50;2.30;;;6.90;99.90;;;;;;5048538;28;20198;-72
2023/02/14 06:07:01;;;;;;;3.35;2.85;;;6.90;99.90;;;;;;5053602;28;20590;-72
2023/02/14 06:09:31;;;;;;;3.75;2.63;;;6.90;99.90;;;;;;5045460;28;20583;-72
2023/02/14 06:12:00;;;;;;;3.97;2.70;;;6.90;99.90;;;;;;5043191;28;20556;-72
2023/02/14 06:14:28;;;;;;;2.88;2.63;;;6.90;99.90;;;;;;5066121;28;20240;-72
2023/02/14 06:17:00;;;;;;;4.72;2.75;;;6.90;99.90;;;;;;5046262;28;20221;-72
2023/02/14 06:19:28;;;;;;;2.03;1.73;;;6.90;99.90;;;;;;5064260;28;20677;-72
2023/02/14 06:21:57;;;;;;;3.47;2.72;;;6.90;99.90;;;;;;5066784;28;20196;-72
2023/02/14 06:24:25;;;;;;;2.47;2.28;;;6.80;99.90;;;;;;5059325;28;20632;-72
2023/02/14 06:26:55;;;;;;;2.17;1.98;;;6.90;99.90;;;;;;5054282;28;20235;-70
2023/02/14 06:29:23;;;;;;;2.50;2.05;;;6.80;99.90;;;;;;5043958;28;20208;-70
2023/02/14 06:31:52;;;;;;;2.47;1.83;;;6.90;99.90;;;;;;5036343;28;20193;-70
2023/02/14 06:34:22;;;;;;;2.03;1.80;;;6.90;99.90;;;;;;5046121;28;20218;-70
2023/02/14 06:36:51;;;;;;;2.50;1.73;;;6.80;99.90;;;;;;5031946;28;20240;-69
2023/02/14 06:39:19;;;;;;;2.40;2.20;;;6.80;99.90;;;;;;5046314;28;20311;-69
2023/02/14 06:41:48;;;;;;;3.25;2.35;;;6.80;99.90;;;;;;5047365;28;20201;-69
2023/02/14 06:44:17;;;;;;;3.63;2.80;;;6.80;99.90;;;;;;5065001;28;20221;-69
2023/02/14 06:46:46;;;;;;;3.90;2.20;;;6.80;99.90;;;;;;5048096;28;20666;-69
2023/02/14 06:49:14;;;;;;;2.35;2.15;;;6.80;99.90;;;;;;5042501;28;20565;-69
2023/02/14 06:51:43;;;;;;;3.05;2.30;;;6.80;99.90;;;;;;5065547;28;20198;-69
2023/02/14 06:54:11;;;;;;;2.08;1.88;;;6.80;99.90;;;;;;5061353;28;20704;-69
2023/02/14 06:56:40;;;;;;;3.25;2.95;;;6.80;99.90;;;;;;5045295;28;20214;-69
2023/02/14 06:59:08;;;;;;;3.42;2.75;;;6.80;99.90;;;;;;5042035;28;20198;-69
2023/02/14 07:01:38;;;;;;;1.83;1.73;;;6.80;99.90;;;;;;5065736;28;20422;-69
2023/02/14 07:04:06;;;;;;;2.63;2.03;;;6.80;99.90;;;;;;5040313;28;20229;-69
2023/02/14 07:06:35;;;;;;;2.58;2.38;;;6.80;99.90;;;;;;5065581;28;20584;-69
2023/02/14 07:09:05;;;;;;;2.30;2.10;;;6.80;99.90;;;;;;5065928;28;20411;-69
2023/02/14 07:11:34;;;;;;;2.63;2.10;;;6.80;99.90;;;;;;5045317;28;20197;-69
2023/02/14 07:14:02;;;;;;;3.75;2.47;;;6.80;99.90;;;;;;5041029;28;20194;-69
2023/02/14 07:16:30;;;;;;;2.47;1.98;;;6.80;99.90;;;;;;5048266;28;20212;-69
2023/02/14 07:19:00;;;;;;;2.38;1.98;;;6.80;99.90;;;;;;5061100;28;20266;-69
2023/02/14 07:21:28;;;;;;;1.60;1.50;;;6.80;99.90;;;;;;5066549;28;20661;-69
2023/02/14 07:23:57;;;;;;;1.90;1.80;;;6.80;99.90;;;;;;5047517;28;20946;-69
2023/02/14 07:26:25;;;;;;;2.75;2.50;;;6.80;99.90;;;;;;5047835;28;20214;-69
2023/02/14 07:28:54;;;;;;;2.63;2.15;;;6.80;99.90;;;;;;5041589;28;20221;-69
2023/02/14 07:31:22;;;;;;;2.38;2.17;;;6.80;99.90;;;;;;5063668;28;20591;-69
2023/02/14 07:33:51;;;;;;;2.65;2.30;;;6.80;99.90;;;;;;5039539;28;20202;-70
2023/02/14 07:36:21;;;;;;;2.00;1.67;;;6.80;99.90;;;;;;5040534;28;20211;-70
2023/02/14 07:38:49;;;;;;;2.67;2.10;;;6.80;99.90;;;;;;5063251;28;20191;-70
2023/02/14 07:41:17;;;;;;;3.38;2.83;;;6.80;99.90;;;;;;5045822;28;20203;-70
2023/02/14 07:43:46;;;;;;;2.42;1.98;;;6.80;99.90;;;;;;5053060;28;20200;-70
2023/02/14 07:46:16;;;;;;;4.13;2.28;;;6.80;99.90;;;;;;5039472;28;20234;-70
2023/02/14 07:48:44;;;;;;;2.38;1.63;;;6.70;99.90;;;;;;5024553;28;20217;-70
2023/02/14 07:51:13;;;;;;;2.88;2.25;;;6.70;99.90;;;;;;5036249;28;20229;-70
2023/02/14 07:53:42;;;;;;;2.47;2.20;;;6.70;99.90;;;;;;5062493;28;20186;-70
2023/02/14 07:56:11;;;;;;;2.22;2.03;;;6.70;99.90;;;;;;5062737;28;20225;-70
2023/02/14 07:58:39;;;;;;;2.45;2.20;;;6.70;99.90;;;;;;5047070;28;20194;-70
2023/02/14 08:01:07;;;;;;;2.55;2.03;;;6.70;99.90;;;;;;5064903;28;20253;-70
2023/02/14 08:03:36;;;;;;;2.75;2.05;;;6.70;99.90;;;;;;5039764;28;20187;-70
2023/02/14 08:06:04;;;;;;;2.33;2.13;;;6.70;99.90;;;;;;5041846;28;20230;-70
2023/02/14 08:08:33;;;;;;;2.92;2.30;;;6.70;99.90;;;;;;5042747;28;20211;-70
2023/02/14 08:11:02;;;;;;;3.22;2.40;;;6.70;99.90;;;;;;5036865;28;20881;-69
2023/02/14 08:13:30;;;;;;;2.63;1.98;;;6.70;99.90;;;;;;5044052;28;20218;-70
2023/02/14 08:16:08;;;;;;;3.20;2.70;;;6.70;99.90;;;;;;5046523;28;20222;-70
2023/02/14 08:18:38;;;;;;;2.90;2.65;;;6.70;99.90;;;;;;5048971;28;20198;-70
2023/02/14 08:21:08;;;;;;;5.53;2.90;;;6.70;99.90;;;;;;5063169;28;20640;-70
2023/02/14 08:23:37;;;;;;;4.13;3.35;;;6.70;99.90;;;;;;5042954;28;20244;-70
2023/02/14 08:26:08;;;;;;;4.45;2.97;;;6.60;99.90;;;;;;5052542;28;20322;-70
2023/02/14 08:28:36;;;;;;;3.05;2.75;;;6.60;99.90;;;;;;5047172;28;20217;-70
2023/02/14 08:31:06;;;;;;;2.38;2.17;;;6.70;99.90;;;;;;5047499;28;20299;-70
2023/02/14 08:33:35;;;;;;;2.50;2.30;;;6.60;99.90;;;;;;5059489;28;20199;-70
2023/02/14 08:36:05;;;;;;;2.30;2.10;;;6.70;99.90;;;;;;5047743;28;20214;-70
2023/02/14 08:38:33;;;;;;;2.90;2.28;;;6.70;99.90;;;;;;5056470;28;20282;-70
2023/02/14 08:41:03;;;;;;;3.78;2.25;;;6.70;99.90;;;;;;5061052;28;20376;-70
2023/02/14 08:43:38;;;;;;;2.17;1.98;;;6.70;99.90;;;;;;5049935;28;20565;-70
2023/02/14 08:46:06;;;;;;;2.90;2.47;;;6.70;99.90;;;;;;5047369;28;20236;-70
2023/02/14 08:48:36;;;;;;;3.13;2.28;;;6.70;99.90;;;;;;5061276;28;20218;-69
2023/02/14 08:51:07;;;;;;;2.58;2.00;;;6.60;99.90;;;;;;5048018;28;20220;-70
2023/02/14 08:53:37;;;;;;;2.97;2.28;;;6.70;99.90;;;;;;5067483;28;20676;-70
2023/02/14 08:56:08;;;;;;;2.60;2.40;;;6.70;99.90;;;;;;5048222;28;20229;-70
2023/02/14 08:58:39;;;;;;;2.13;1.98;;;6.70;99.90;;;;;;5058941;28;20303;-70
2023/02/14 09:01:09;;;;;;;2.63;1.90;;;6.70;99.90;;;;;;5068021;28;20225;-70
2023/02/14 09:03:38;;;;;;;2.30;2.10;;;6.70;99.90;;;;;;5048316;28;20206;-70
2023/02/14 09:06:10;;;;;;;2.63;2.00;;;6.70;99.90;;;;;;5046073;28;20218;-70
2023/02/14 09:08:40;;;;;;;1.95;1.80;;;6.70;99.90;;;;;;5042698;28;20197;-70
2023/02/14 09:11:10;;;;;;;2.40;2.10;;;6.70;99.90;;;;;;5049285;28;20225;-70
2023/02/14 09:13:40;;;;;;;2.70;2.25;;;6.70;99.90;;;;;;5048965;28;20247;-69
2023/02/14 09:19:18;;;;;;;2.38;1.98;;;6.70;99.90;;;;;;5037416;28;20351;-70
2023/02/14 09:22:12;;;;;;;2.83;2.30;;;6.70;99.90;;;;;;5034764;28;20565;-70
2023/02/14 09:25:06;;;;;;;2.60;2.40;;;6.70;99.90;;;;;;5028761;28;20225;-70
2023/02/14 09:27:47;;;;;;;2.55;2.35;;;6.70;99.90;;;;;;5040678;28;20193;-70
2023/02/14 09:31:00;;;;;;;2.28;1.77;;;6.70;99.90;;;;;;5031274;28;20206;-69
2023/02/14 09:33:40;;;;;;;3.00;2.05;;;6.80;99.90;;;;;;5043951;28;20194;-69
2023/02/14 09:39:19;;;;;;;3.05;2.75;;;6.80;99.90;;;;;;5049543;28;20192;-68
2023/02/14 09:42:44;;;;;;;2.30;2.10;;;6.80;99.90;;;;;;5048260;28;20669;-68
2023/02/14 09:45:32;;;;;;;4.32;2.67;;;6.80;99.90;;;;;;5038822;28;20219;-68
2023/02/14 09:48:25;;;;;;;3.92;2.30;;;6.80;99.90;;;;;;5030102;28;20192;-68
2023/02/14 09:51:34;;;;;;;3.47;2.50;;;6.80;99.90;;;;;;5040002;28;20628;-68
2023/02/14 09:54:27;;;;;;;3.63;2.53;;;6.80;99.90;;;;;;5037184;28;20232;-68
2023/02/14 09:57:29;;;;;;;3.85;2.47;;;6.80;99.90;;;;;;5042500;28;20197;-68
2023/02/14 10:03:46;;;;;;;3.10;2.10;;;6.80;99.90;;;;;;5063656;28;20546;-68
2023/02/14 10:06:37;;;;;;;2.55;2.00;;;6.80;99.90;;;;;;5050240;28;20788;-68
2023/02/14 10:09:46;;;;;;;2.95;2.10;;;6.80;99.90;;;;;;5040937;28;20210;-68
2023/02/14 10:12:38;;;;;;;1.90;1.80;;;6.80;99.90;;;;;;5062737;28;20262;-68
2023/02/14 10:15:27;;;;;;;3.47;2.20;;;6.80;99.90;;;;;;5035488;28;20214;-68
2023/02/14 10:18:11;;;;;;;3.08;2.45;;;6.80;99.90;;;;;;5041158;28;20189;-68
2023/02/14 10:21:40;;;;;;;2.40;2.10;;;6.80;99.90;;;;;;5023106;28;20312;-68
2023/02/14 10:24:26;;;;;;;2.65;2.00;;;6.80;99.90;;;;;;5058960;28;20245;-68
2023/02/14 10:30:16;;;;;;;2.50;2.00;;;6.80;99.90;;;;;;5031878;28;20676;-68
2023/02/14 10:32:52;;;;;;;2.40;2.20;;;6.80;99.90;;;;;;5046045;28;20751;-68
2023/02/14 10:38:50;;;;;;;2.38;2.10;;;6.80;99.90;;;;;;5046102;28;20698;-68
2023/02/14 10:41:48;;;;;;;2.17;1.98;;;6.80;99.90;;;;;;5055674;28;20229;-68
2023/02/14 10:44:51;;;;;;;3.00;2.15;;;6.80;99.90;;;;;;5058333;28;20516;-68
2023/02/14 10:47:48;;;;;;;3.08;2.22;;;6.80;99.90;;;;;;5063239;28;20197;-68
2023/02/14 10:50:40;;;;;;;2.20;2.00;;;6.80;99.90;;;;;;5058620;28;20225;-68
2023/02/14 10:53:29;;;;;;;3.67;2.65;;;6.80;99.90;;;;;;5040996;28;20672;-68
2023/02/14 10:56:23;;;;;;;3.67;2.60;;;6.80;99.90;;;;;;5036822;28;20244;-68
2023/02/14 10:59:04;;;;;;;2.42;1.90;;;6.80;99.90;;;;;;5030246;28;20612;-68
2023/02/14 11:01:36;;;;;;;2.22;1.90;;;6.80;99.90;;;;;;5028979;28;20200;-68
2023/02/14 11:04:22;;;;;;;6.18;4.90;;;6.80;99.90;;;;;;5022520;28;20206;-68
2023/02/14 11:07:22;;;;;;;8.60;3.05;;;6.80;99.90;;;;;;5052438;28;20197;-68
2023/02/14 11:10:35;;;;;;;7.03;5.32;;;6.80;99.90;;;;;;5042922;28;21031;-68
2023/02/14 11:13:52;;;;;;;7.25;5.00;;;6.80;99.90;;;;;;5041000;28;20198;-68
2023/02/14 11:19:58;;;;;;;5.40;4.18;;;6.80;99.90;;;;;;5036756;28;20181;-68
2023/02/14 11:22:32;;;;;;;5.22;3.50;;;6.80;99.90;;;;;;5043710;28;20611;-68
2023/02/14 11:25:20;;;;;;;4.70;3.70;;;6.80;99.90;;;;;;5042338;28;20785;-68
2023/02/14 11:28:14;;;;;;;4.22;3.22;;;6.80;99.90;;;;;;5042888;28;21058;-68
2023/02/14 11:30:55;;;;;;;3.20;2.80;;;6.80;99.90;;;;;;5039150;28;20306;-68
2023/02/14 11:33:49;;;;;;;3.75;3.30;;;6.80;99.90;;;;;;5041727;28;20196;-68
2023/02/14 11:36:32;;;;;;;4.40;3.33;;;6.80;99.90;;;;;;5046937;28;20231;-68
2023/02/14 11:39:28;;;;;;;5.43;3.55;;;6.80;99.90;;;;;;5041099;28;20197;-68
2023/02/14 11:42:06;;;;;;;3.88;3.40;;;6.80;99.90;;;;;;5064235;28;20213;-68
2023/02/14 11:44:57;;;;;;;4.88;3.50;;;6.80;99.90;;;;;;5036672;28;20225;-68
2023/02/14 11:48:17;;;;;;;3.20;2.60;;;6.80;99.90;;;;;;5024532;28;20749;-68
2023/02/14 11:51:21;;;;;;;3.05;2.63;;;6.80;99.90;;;;;;5030618;28;20253;-68
2023/02/14 11:54:21;;;;;;;3.40;3.13;;;6.80;99.90;;;;;;5044328;28;20192;-68
2023/02/14 11:57:04;;;;;;;5.00;3.83;;;6.80;99.90;;;;;;5029276;28;20204;-68
2023/02/14 11:59:49;;;;;;;3.50;3.08;;;6.80;99.90;;;;;;5065738;28;20189;-68
2023/02/14 12:02:51;;;;;;;4.30;3.75;;;6.80;99.90;;;;;;5067703;28;20188;-68
2023/02/14 12:05:35;;;;;;;4.80;4.25;;;6.80;99.90;;;;;;5055485;28;20667;-68
2023/02/14 12:08:09;;;;;;;6.38;3.25;;;6.80;99.90;;;;;;5045777;28;20559;-68
2023/02/14 12:11:07;;;;;;;4.20;3.00;;;6.80;99.90;;;;;;5040830;28;20214;-68
2023/02/14 12:13:47;;;;;;;3.90;3.20;;;6.80;99.90;;;;;;5054996;28;20691;-68
2023/02/14 12:16:44;;;;;;;4.32;3.50;;;6.80;99.90;;;;;;5041521;28;20701;-68
2023/02/14 12:19:34;;;;;;;4.07;3.33;;;6.80;99.90;;;;;;5059375;28;20211;-68
2023/02/14 12:22:36;;;;;;;3.08;2.58;;;6.80;99.90;;;;;;5045599;28;20198;-68
2023/02/14 12:25:26;;;;;;;4.57;2.80;;;6.80;99.90;;;;;;5032546;28;20244;-68
2023/02/14 12:28:13;;;;;;;3.63;2.83;;;6.80;99.90;;;;;;5061240;28;20291;-68
2023/02/14 12:31:05;;;;;;;4.28;3.25;;;6.80;99.90;;;;;;5020715;28;20215;-68
2023/02/14 12:33:55;;;;;;;3.97;3.35;;;6.80;99.90;;;;;;5049682;28;20188;-68
2023/02/14 12:37:17;;;;;;;5.88;3.30;;;6.80;99.90;;;;;;5030861;28;20245;-68
2023/02/14 12:40:36;;;;;;;3.83;2.53;;;6.80;99.90;;;;;;5065981;28;20217;-68
2023/02/14 12:44:05;;;;;;;3.47;2.60;;;6.80;99.90;;;;;;5019090;28;20327;-68
2023/02/14 12:47:04;;;;;;;4.80;2.65;;;6.80;99.90;;;;;;5063368;28;20591;-68
2023/02/14 12:50:29;;;;;;;3.70;2.70;;;6.80;99.90;;;;;;5008849;28;20796;-69
2023/02/14 12:53:34;;;;;;;3.45;2.63;;;6.80;99.90;;;;;;5044236;28;20204;-68
2023/02/14 12:56:25;;;;;;;4.78;3.42;;;6.80;99.90;;;;;;4996951;28;20229;-68
2023/02/14 13:02:36;;;;;;;4.22;2.67;;;6.80;99.90;;;;;;5033619;28;20245;-68
2023/02/14 13:05:43;;;;;;;;;;;;;;;;;;;;;
2023/02/14 13:08:33;;;;;;;3.30;2.90;;;6.80;99.90;;;;;;5045767;28;20993;-69
2023/02/14 13:11:23;;;;;;;4.75;2.88;;;6.80;99.90;;;;;;5052601;28;20271;-69
2023/02/14 13:14:09;;;;;;;3.60;2.92;;;6.80;99.90;;;;;;5059281;28;20196;-69
2023/02/14 13:17:00;;;;;;;3.85;2.97;;;6.80;99.90;;;;;;5056507;28;20290;-69
2023/02/14 13:19:55;;;;;;;3.40;3.10;;;6.80;99.90;;;;;;5028558;28;20275;-69
2023/02/14 13:22:35;;;;;;;3.28;2.90;;;6.80;99.90;;;;;;5059799;28;20198;-69
2023/02/14 13:25:51;;;;;;;3.70;2.42;;;6.80;99.90;;;;;;5034512;28;20222;-69
2023/02/14 13:28:29;;;;;;;3.85;2.83;;;6.80;99.90;;;;;;5045957;28;20194;-69
2023/02/14 13:31:37;;;;;;;2.78;2.25;;;6.80;99.90;;;;;;5030873;28;20219;-69
2023/02/14 13:34:29;;;;;;;4.35;2.90;;;6.80;99.90;;;;;;5046914;28;20596;-69
2023/02/14 13:37:07;;;;;;;4.28;3.20;;;6.90;99.90;;;;;;5047903;28;20289;-69
2023/02/14 13:40:03;;;;;;;3.58;2.58;;;6.80;99.90;;;;;;5048665;28;20221;-69
2023/02/14 13:43:08;;;;;;;4.57;3.30;;;6.80;99.90;;;;;;5060954;28;20191;-69
2023/02/14 13:46:13;;;;;;;3.35;2.60;;;6.90;99.90;;;;;;5056623;28;20226;-69
2023/02/14 13:49:03;;;;;;;3.85;3.30;;;6.80;99.90;;;;;;5044557;28;20209;-69
2023/02/14 13:51:53;;;;;;;5.88;3.20;;;6.80;99.90;;;;;;5064355;28;20313;-69
2023/02/14 13:54:37;;;;;;;3.95;2.63;;;6.80;99.90;;;;;;5028465;28;20198;-69
2023/02/14 13:57:32;;;;;;;4.03;3.47;;;6.90;99.90;;;;;;5056644;28;20228;-69
2023/02/14 14:00:45;;;;;;;4.18;2.95;;;6.80;99.90;;;;;;5030613;28;20592;-69
2023/02/14 14:03:55;;;;;;;3.95;2.78;;;6.90;99.90;;;;;;5057947;28;20252;-71
2023/02/14 14:06:23;;;;;;;3.78;2.83;;;6.90;99.90;;;;;;5043264;28;20225;-71
2023/02/14 14:08:55;;;;;;;3.92;3.03;;;6.90;99.90;;;;;;5047516;28;20198;-71
2023/02/14 14:11:58;;;;;;;3.25;2.50;;;6.90;99.90;;;;;;5045960;28;20298;-71
2023/02/14 14:14:36;;;;;;;4.38;3.08;;;6.90;99.90;;;;;;5043376;28;20788;-71
2023/02/14 14:17:26;;;;;;;3.55;2.83;;;6.90;99.90;;;;;;5059402;28;20225;-71
2023/02/14 14:19:56;;;;;;;6.10;2.97;;;6.90;99.90;;;;;;5041794;28;20236;-71
2023/02/14 14:22:26;;;;;;;4.28;2.90;;;6.90;99.90;;;;;;5043384;28;20197;-71
2023/02/14 14:25:00;;;;;;;3.67;2.60;;;6.90;99.90;;;;;;5031714;28;20226;-71
2023/02/14 14:27:33;;;;;;;3.53;2.53;;;6.90;99.90;;;;;;5060840;28;20262;-71
2023/02/14 14:30:06;;;;;;;2.78;2.53;;;6.90;99.90;;;;;;5046496;28;20523;-71